sensor_id;sensor_type;location;lat;lon;timestamp;P1;durP1;ratioP1;P2;durP2;ratioP2
29422;SDS011;16399;51.686;8.684;2023-12-29T00:02:26;5.67;;;1.25;;
29422;SDS011;16399;51.686;8.684;2023-12-29T00:05:29;8.15;;;2.20;;
29422;SDS011;16399;51.686;8.684;2023-12-29T00:08:31;9.43;;;1.37;;
29422;SDS011;16399;51.686;8.684;2023-12-29T00:11:33;4.55;;;1.42;;
29422;SDS011;16399;51.686;8.684;2023-12-29T00:14:39;5.58;;;0.93;;
29422;SDS011;16399;51.686;8.684;2023-12-29T00:17:42;5.95;;;1.10;;
29422;SDS011;16399;51.686;8.684;2023-12-29T00:20:44;8.80;;;1.80;;
29422;SDS011;16399;51.686;8.684;2023-12-29T00:23:46;9.38;;;1.52;;
29422;SDS011;16399;51.686;8.684;2023-12-29T00:26:49;5.37;;;1.40;;
29422;SDS011;16399;51.686;8.684;2023-12-29T00:29:51;6.37;;;1.15;;
29422;SDS011;16399;51.686;8.684;2023-12-29T00:32:53;4.20;;;0.90;;
29422;SDS011;16399;51.686;8.684;2023-12-29T00:35:56;3.17;;;0.90;;
29422;SDS011;16399;51.686;8.684;2023-12-29T00:38:58;3.75;;;1.05;;
29422;SDS011;16399;51.686;8.684;2023-12-29T00:42:00;7.78;;;1.67;;
29422;SDS011;16399;51.686;8.684;2023-12-29T00:45:03;6.33;;;1.17;;
29422;SDS011;16399;51.686;8.684;2023-12-29T00:48:06;5.50;;;1.20;;
29422;SDS011;16399;51.686;8.684;2023-12-29T00:51:09;5.35;;;1.10;;
29422;SDS011;16399;51.686;8.684;2023-12-29T00:54:12;5.33;;;1.10;;
29422;SDS011;16399;51.686;8.684;2023-12-29T00:57:14;5.33;;;1.20;;
29422;SDS011;16399;51.686;8.684;2023-12-29T01:00:16;4.95;;;1.00;;
29422;SDS011;16399;51.686;8.684;2023-12-29T01:03:19;6.17;;;1.30;;
29422;SDS011;16399;51.686;8.684;2023-12-29T01:06:21;4.12;;;1.17;;
29422;SDS011;16399;51.686;8.684;2023-12-29T01:09:26;4.42;;;0.93;;
29422;SDS011;16399;51.686;8.684;2023-12-29T01:12:28;4.35;;;1.60;;
29422;SDS011;16399;51.686;8.684;2023-12-29T01:15:30;4.72;;;1.00;;
29422;SDS011;16399;51.686;8.684;2023-12-29T01:18:33;3.15;;;1.00;;
29422;SDS011;16399;51.686;8.684;2023-12-29T01:21:37;8.03;;;1.30;;
29422;SDS011;16399;51.686;8.684;2023-12-29T01:24:39;7.80;;;1.05;;
29422;SDS011;16399;51.686;8.684;2023-12-29T01:27:41;3.35;;;1.00;;
29422;SDS011;16399;51.686;8.684;2023-12-29T01:30:44;9.13;;;1.22;;
29422;SDS011;16399;51.686;8.684;2023-12-29T01:33:46;5.80;;;0.82;;
29422;SDS011;16399;51.686;8.684;2023-12-29T01:36:48;6.20;;;1.07;;
29422;SDS011;16399;51.686;8.684;2023-12-29T01:39:50;6.30;;;1.42;;
29422;SDS011;16399;51.686;8.684;2023-12-29T01:42:53;6.50;;;1.15;;
29422;SDS011;16399;51.686;8.684;2023-12-29T01:45:55;4.60;;;1.00;;
29422;SDS011;16399;51.686;8.684;2023-12-29T01:48:57;7.47;;;1.00;;
29422;SDS011;16399;51.686;8.684;2023-12-29T01:52:00;5.35;;;0.90;;
29422;SDS011;16399;51.686;8.684;2023-12-29T01:55:04;5.37;;;0.98;;
29422;SDS011;16399;51.686;8.684;2023-12-29T01:58:06;6.12;;;1.15;;
29422;SDS011;16399;51.686;8.684;2023-12-29T02:01:09;8.65;;;1.10;;
29422;SDS011;16399;51.686;8.684;2023-12-29T02:04:12;4.75;;;0.90;;
29422;SDS011;16399;51.686;8.684;2023-12-29T02:07:15;3.77;;;0.93;;
29422;SDS011;16399;51.686;8.684;2023-12-29T02:10:17;5.65;;;1.00;;
29422;SDS011;16399;51.686;8.684;2023-12-29T02:13:20;4.75;;;1.07;;
29422;SDS011;16399;51.686;8.684;2023-12-29T02:16:26;6.72;;;1.10;;
29422;SDS011;16399;51.686;8.684;2023-12-29T02:22:44;4.65;;;0.90;;
29422;SDS011;16399;51.686;8.684;2023-12-29T02:25:47;6.35;;;1.07;;
29422;SDS011;16399;51.686;8.684;2023-12-29T02:28:53;5.37;;;0.95;;
29422;SDS011;16399;51.686;8.684;2023-12-29T02:31:54;5.05;;;1.10;;
29422;SDS011;16399;51.686;8.684;2023-12-29T02:35:00;6.85;;;1.00;;
29422;SDS011;16399;51.686;8.684;2023-12-29T02:38:04;3.30;;;0.98;;
29422;SDS011;16399;51.686;8.684;2023-12-29T02:41:06;4.62;;;0.88;;
29422;SDS011;16399;51.686;8.684;2023-12-29T02:44:09;6.03;;;0.88;;
29422;SDS011;16399;51.686;8.684;2023-12-29T02:47:11;5.30;;;0.80;;
29422;SDS011;16399;51.686;8.684;2023-12-29T02:50:14;3.08;;;0.90;;
29422;SDS011;16399;51.686;8.684;2023-12-29T02:53:16;4.42;;;1.10;;
29422;SDS011;16399;51.686;8.684;2023-12-29T02:56:18;6.15;;;1.25;;
29422;SDS011;16399;51.686;8.684;2023-12-29T02:59:20;7.17;;;1.10;;
29422;SDS011;16399;51.686;8.684;2023-12-29T03:02:23;4.97;;;1.30;;
29422;SDS011;16399;51.686;8.684;2023-12-29T03:05:25;3.00;;;0.90;;
29422;SDS011;16399;51.686;8.684;2023-12-29T03:08:28;7.00;;;1.10;;
29422;SDS011;16399;51.686;8.684;2023-12-29T03:11:31;4.05;;;0.85;;
29422;SDS011;16399;51.686;8.684;2023-12-29T03:14:34;5.10;;;1.17;;
29422;SDS011;16399;51.686;8.684;2023-12-29T03:17:36;8.73;;;1.37;;
29422;SDS011;16399;51.686;8.684;2023-12-29T03:20:38;7.65;;;1.17;;
29422;SDS011;16399;51.686;8.684;2023-12-29T03:23:40;4.15;;;1.05;;
29422;SDS011;16399;51.686;8.684;2023-12-29T03:26:43;4.62;;;1.15;;
29422;SDS011;16399;51.686;8.684;2023-12-29T03:29:45;12.28;;;1.95;;
29422;SDS011;16399;51.686;8.684;2023-12-29T03:32:47;4.72;;;1.30;;
29422;SDS011;16399;51.686;8.684;2023-12-29T03:35:49;6.83;;;1.40;;
29422;SDS011;16399;51.686;8.684;2023-12-29T03:38:52;8.40;;;1.05;;
29422;SDS011;16399;51.686;8.684;2023-12-29T03:41:54;13.75;;;1.60;;
29422;SDS011;16399;51.686;8.684;2023-12-29T03:44:56;5.90;;;1.32;;
29422;SDS011;16399;51.686;8.684;2023-12-29T03:47:59;8.25;;;1.77;;
29422;SDS011;16399;51.686;8.684;2023-12-29T03:51:01;5.50;;;1.30;;
29422;SDS011;16399;51.686;8.684;2023-12-29T03:54:04;8.13;;;1.72;;
29422;SDS011;16399;51.686;8.684;2023-12-29T03:57:06;7.40;;;1.40;;
29422;SDS011;16399;51.686;8.684;2023-12-29T04:00:11;5.22;;;1.20;;
29422;SDS011;16399;51.686;8.684;2023-12-29T04:03:15;4.65;;;1.22;;
29422;SDS011;16399;51.686;8.684;2023-12-29T04:06:17;5.40;;;1.27;;
29422;SDS011;16399;51.686;8.684;2023-12-29T04:09:20;4.12;;;1.17;;
29422;SDS011;16399;51.686;8.684;2023-12-29T04:12:23;6.60;;;1.37;;
29422;SDS011;16399;51.686;8.684;2023-12-29T04:15:25;5.60;;;1.42;;
29422;SDS011;16399;51.686;8.684;2023-12-29T04:18:28;5.80;;;1.55;;
29422;SDS011;16399;51.686;8.684;2023-12-29T04:21:30;4.53;;;1.12;;
29422;SDS011;16399;51.686;8.684;2023-12-29T04:24:33;7.10;;;1.60;;
29422;SDS011;16399;51.686;8.684;2023-12-29T04:27:35;3.17;;;1.10;;
29422;SDS011;16399;51.686;8.684;2023-12-29T04:30:38;4.00;;;1.00;;
29422;SDS011;16399;51.686;8.684;2023-12-29T04:33:40;5.83;;;1.17;;
29422;SDS011;16399;51.686;8.684;2023-12-29T04:36:42;2.00;;;1.00;;
29422;SDS011;16399;51.686;8.684;2023-12-29T04:39:44;4.37;;;0.90;;
29422;SDS011;16399;51.686;8.684;2023-12-29T04:42:47;4.47;;;1.20;;
29422;SDS011;16399;51.686;8.684;2023-12-29T04:45:49;4.80;;;0.88;;
29422;SDS011;16399;51.686;8.684;2023-12-29T04:48:51;4.62;;;1.47;;
29422;SDS011;16399;51.686;8.684;2023-12-29T04:51:53;3.95;;;1.00;;
29422;SDS011;16399;51.686;8.684;2023-12-29T04:54:56;3.37;;;0.90;;
29422;SDS011;16399;51.686;8.684;2023-12-29T04:57:58;5.28;;;1.12;;
29422;SDS011;16399;51.686;8.684;2023-12-29T05:01:00;3.37;;;1.00;;
29422;SDS011;16399;51.686;8.684;2023-12-29T05:04:03;3.17;;;1.00;;
29422;SDS011;16399;51.686;8.684;2023-12-29T05:07:05;2.52;;;0.85;;
29422;SDS011;16399;51.686;8.684;2023-12-29T05:10:09;3.80;;;1.10;;
29422;SDS011;16399;51.686;8.684;2023-12-29T05:13:11;4.05;;;0.98;;
29422;SDS011;16399;51.686;8.684;2023-12-29T05:16:13;9.08;;;0.90;;
29422;SDS011;16399;51.686;8.684;2023-12-29T05:19:16;3.80;;;0.88;;
29422;SDS011;16399;51.686;8.684;2023-12-29T05:22:18;3.95;;;1.00;;
29422;SDS011;16399;51.686;8.684;2023-12-29T05:25:20;4.58;;;0.80;;
29422;SDS011;16399;51.686;8.684;2023-12-29T05:28:24;5.97;;;1.20;;
29422;SDS011;16399;51.686;8.684;2023-12-29T05:31:26;4.50;;;1.45;;
29422;SDS011;16399;51.686;8.684;2023-12-29T05:34:29;4.97;;;1.10;;
29422;SDS011;16399;51.686;8.684;2023-12-29T05:37:31;7.80;;;2.00;;
29422;SDS011;16399;51.686;8.684;2023-12-29T05:40:33;2.87;;;0.98;;
29422;SDS011;16399;51.686;8.684;2023-12-29T05:43:36;6.03;;;1.30;;
29422;SDS011;16399;51.686;8.684;2023-12-29T05:46:38;11.45;;;1.57;;
29422;SDS011;16399;51.686;8.684;2023-12-29T05:49:40;6.17;;;1.00;;
29422;SDS011;16399;51.686;8.684;2023-12-29T05:52:42;4.55;;;1.40;;
29422;SDS011;16399;51.686;8.684;2023-12-29T05:55:45;6.15;;;1.20;;
29422;SDS011;16399;51.686;8.684;2023-12-29T05:58:47;3.75;;;1.10;;
29422;SDS011;16399;51.686;8.684;2023-12-29T06:01:49;5.05;;;0.88;;
29422;SDS011;16399;51.686;8.684;2023-12-29T06:04:52;8.40;;;1.40;;
29422;SDS011;16399;51.686;8.684;2023-12-29T06:07:54;5.22;;;1.10;;
29422;SDS011;16399;51.686;8.684;2023-12-29T06:10:56;7.00;;;1.27;;
29422;SDS011;16399;51.686;8.684;2023-12-29T06:13:58;5.80;;;0.93;;
29422;SDS011;16399;51.686;8.684;2023-12-29T06:17:01;6.80;;;1.30;;
29422;SDS011;16399;51.686;8.684;2023-12-29T06:20:03;8.83;;;2.05;;
29422;SDS011;16399;51.686;8.684;2023-12-29T06:23:06;5.28;;;1.10;;
29422;SDS011;16399;51.686;8.684;2023-12-29T06:26:18;6.37;;;1.22;;
29422;SDS011;16399;51.686;8.684;2023-12-29T06:29:21;6.87;;;1.30;;
29422;SDS011;16399;51.686;8.684;2023-12-29T06:32:23;8.55;;;1.30;;
29422;SDS011;16399;51.686;8.684;2023-12-29T06:35:26;8.88;;;1.25;;
29422;SDS011;16399;51.686;8.684;2023-12-29T06:38:28;6.45;;;1.30;;
29422;SDS011;16399;51.686;8.684;2023-12-29T06:41:30;5.53;;;1.32;;
29422;SDS011;16399;51.686;8.684;2023-12-29T06:44:33;5.30;;;1.20;;
29422;SDS011;16399;51.686;8.684;2023-12-29T06:47:35;8.73;;;1.52;;
29422;SDS011;16399;51.686;8.684;2023-12-29T06:50:37;2.85;;;0.72;;
29422;SDS011;16399;51.686;8.684;2023-12-29T06:53:40;8.15;;;1.62;;
29422;SDS011;16399;51.686;8.684;2023-12-29T06:56:42;9.48;;;1.62;;
29422;SDS011;16399;51.686;8.684;2023-12-29T06:59:45;5.10;;;1.22;;
29422;SDS011;16399;51.686;8.684;2023-12-29T07:02:47;8.60;;;1.40;;
29422;SDS011;16399;51.686;8.684;2023-12-29T07:05:49;5.28;;;0.90;;
29422;SDS011;16399;51.686;8.684;2023-12-29T07:08:51;7.33;;;1.25;;
29422;SDS011;16399;51.686;8.684;2023-12-29T07:11:54;5.78;;;1.35;;
29422;SDS011;16399;51.686;8.684;2023-12-29T07:14:56;7.05;;;1.30;;
29422;SDS011;16399;51.686;8.684;2023-12-29T07:17:58;7.40;;;1.00;;
29422;SDS011;16399;51.686;8.684;2023-12-29T07:21:00;6.60;;;1.17;;
29422;SDS011;16399;51.686;8.684;2023-12-29T07:24:03;5.80;;;1.00;;
29422;SDS011;16399;51.686;8.684;2023-12-29T07:27:05;8.13;;;1.17;;
29422;SDS011;16399;51.686;8.684;2023-12-29T07:30:08;10.72;;;1.47;;
29422;SDS011;16399;51.686;8.684;2023-12-29T07:33:10;9.08;;;1.42;;
29422;SDS011;16399;51.686;8.684;2023-12-29T07:36:13;4.42;;;1.10;;
29422;SDS011;16399;51.686;8.684;2023-12-29T07:39:15;6.03;;;1.12;;
29422;SDS011;16399;51.686;8.684;2023-12-29T07:42:17;3.60;;;1.02;;
29422;SDS011;16399;51.686;8.684;2023-12-29T07:45:20;7.40;;;1.32;;
29422;SDS011;16399;51.686;8.684;2023-12-29T07:48:22;4.90;;;1.10;;
29422;SDS011;16399;51.686;8.684;2023-12-29T07:51:24;7.12;;;1.20;;
29422;SDS011;16399;51.686;8.684;2023-12-29T07:54:26;7.15;;;1.42;;
29422;SDS011;16399;51.686;8.684;2023-12-29T07:57:29;5.47;;;0.90;;
29422;SDS011;16399;51.686;8.684;2023-12-29T08:00:31;5.28;;;1.40;;
29422;SDS011;16399;51.686;8.684;2023-12-29T08:03:34;8.00;;;1.22;;
29422;SDS011;16399;51.686;8.684;2023-12-29T08:06:39;6.30;;;1.32;;
29422;SDS011;16399;51.686;8.684;2023-12-29T08:09:41;6.42;;;1.12;;
29422;SDS011;16399;51.686;8.684;2023-12-29T08:12:44;11.33;;;1.02;;
29422;SDS011;16399;51.686;8.684;2023-12-29T08:15:46;10.43;;;1.35;;
29422;SDS011;16399;51.686;8.684;2023-12-29T08:18:49;6.15;;;1.10;;
29422;SDS011;16399;51.686;8.684;2023-12-29T08:21:51;4.20;;;1.12;;
29422;SDS011;16399;51.686;8.684;2023-12-29T08:24:54;5.53;;;1.22;;
29422;SDS011;16399;51.686;8.684;2023-12-29T08:27:56;6.25;;;1.05;;
29422;SDS011;16399;51.686;8.684;2023-12-29T08:30:58;6.03;;;1.37;;
29422;SDS011;16399;51.686;8.684;2023-12-29T08:34:01;8.78;;;1.30;;
29422;SDS011;16399;51.686;8.684;2023-12-29T08:37:03;8.63;;;1.37;;
29422;SDS011;16399;51.686;8.684;2023-12-29T08:40:06;7.08;;;1.60;;
29422;SDS011;16399;51.686;8.684;2023-12-29T08:43:09;7.45;;;1.60;;
29422;SDS011;16399;51.686;8.684;2023-12-29T08:46:11;4.53;;;1.02;;
29422;SDS011;16399;51.686;8.684;2023-12-29T08:49:14;4.62;;;1.00;;
29422;SDS011;16399;51.686;8.684;2023-12-29T08:52:16;5.47;;;1.50;;
29422;SDS011;16399;51.686;8.684;2023-12-29T08:55:18;3.83;;;1.20;;
29422;SDS011;16399;51.686;8.684;2023-12-29T08:58:21;4.28;;;1.00;;
29422;SDS011;16399;51.686;8.684;2023-12-29T09:01:23;3.77;;;0.90;;
29422;SDS011;16399;51.686;8.684;2023-12-29T09:04:25;4.85;;;1.07;;
29422;SDS011;16399;51.686;8.684;2023-12-29T09:07:28;4.40;;;1.00;;
29422;SDS011;16399;51.686;8.684;2023-12-29T09:10:30;5.97;;;1.15;;
29422;SDS011;16399;51.686;8.684;2023-12-29T09:13:32;3.98;;;1.00;;
29422;SDS011;16399;51.686;8.684;2023-12-29T09:16:35;4.40;;;0.90;;
29422;SDS011;16399;51.686;8.684;2023-12-29T09:19:37;6.28;;;0.93;;
29422;SDS011;16399;51.686;8.684;2023-12-29T09:22:40;6.55;;;1.80;;
29422;SDS011;16399;51.686;8.684;2023-12-29T09:25:42;7.78;;;1.42;;
29422;SDS011;16399;51.686;8.684;2023-12-29T09:28:45;7.97;;;1.17;;
29422;SDS011;16399;51.686;8.684;2023-12-29T09:31:47;5.62;;;0.93;;
29422;SDS011;16399;51.686;8.684;2023-12-29T09:34:49;2.10;;;0.75;;
29422;SDS011;16399;51.686;8.684;2023-12-29T09:37:52;4.40;;;0.90;;
29422;SDS011;16399;51.686;8.684;2023-12-29T09:40:55;5.17;;;0.90;;
29422;SDS011;16399;51.686;8.684;2023-12-29T09:44:03;7.87;;;0.90;;
29422;SDS011;16399;51.686;8.684;2023-12-29T09:47:07;1.85;;;0.60;;
29422;SDS011;16399;51.686;8.684;2023-12-29T09:50:12;1.65;;;0.50;;
29422;SDS011;16399;51.686;8.684;2023-12-29T09:53:16;2.35;;;0.55;;
29422;SDS011;16399;51.686;8.684;2023-12-29T09:56:21;1.85;;;0.60;;
29422;SDS011;16399;51.686;8.684;2023-12-29T09:59:25;3.27;;;0.50;;
29422;SDS011;16399;51.686;8.684;2023-12-29T10:02:29;2.60;;;0.93;;
29422;SDS011;16399;51.686;8.684;2023-12-29T10:05:32;2.17;;;0.68;;
29422;SDS011;16399;51.686;8.684;2023-12-29T10:08:34;3.58;;;0.57;;
29422;SDS011;16399;51.686;8.684;2023-12-29T10:14:55;1.42;;;0.30;;
29422;SDS011;16399;51.686;8.684;2023-12-29T10:24:26;2.37;;;0.35;;
29422;SDS011;16399;51.686;8.684;2023-12-29T10:27:29;1.55;;;0.50;;
29422;SDS011;16399;51.686;8.684;2023-12-29T10:30:31;1.95;;;0.80;;
29422;SDS011;16399;51.686;8.684;2023-12-29T10:33:34;1.67;;;0.45;;
29422;SDS011;16399;51.686;8.684;2023-12-29T10:36:46;1.42;;;0.35;;
29422;SDS011;16399;51.686;8.684;2023-12-29T10:39:56;0.83;;;0.37;;
29422;SDS011;16399;51.686;8.684;2023-12-29T10:42:58;0.98;;;0.37;;
29422;SDS011;16399;51.686;8.684;2023-12-29T10:46:05;1.50;;;0.50;;
29422;SDS011;16399;51.686;8.684;2023-12-29T10:49:11;0.20;;;0.20;;
29422;SDS011;16399;51.686;8.684;2023-12-29T10:52:14;1.07;;;0.40;;
29422;SDS011;16399;51.686;8.684;2023-12-29T10:55:17;0.30;;;0.28;;
29422;SDS011;16399;51.686;8.684;2023-12-29T10:58:19;0.78;;;0.30;;
29422;SDS011;16399;51.686;8.684;2023-12-29T11:01:22;0.25;;;0.20;;
29422;SDS011;16399;51.686;8.684;2023-12-29T11:04:26;1.17;;;0.50;;
29422;SDS011;16399;51.686;8.684;2023-12-29T11:07:33;0.65;;;0.30;;
29422;SDS011;16399;51.686;8.684;2023-12-29T11:10:39;7.08;;;0.75;;
29422;SDS011;16399;51.686;8.684;2023-12-29T11:13:42;1.67;;;0.42;;
29422;SDS011;16399;51.686;8.684;2023-12-29T11:16:45;1.52;;;0.33;;
29422;SDS011;16399;51.686;8.684;2023-12-29T11:19:49;0.43;;;0.30;;
29422;SDS011;16399;51.686;8.684;2023-12-29T11:22:53;1.45;;;0.75;;
29422;SDS011;16399;51.686;8.684;2023-12-29T11:25:56;0.80;;;0.35;;
29422;SDS011;16399;51.686;8.684;2023-12-29T11:29:00;0.45;;;0.20;;
29422;SDS011;16399;51.686;8.684;2023-12-29T11:32:05;1.32;;;0.57;;
29422;SDS011;16399;51.686;8.684;2023-12-29T11:35:16;0.60;;;0.28;;
29422;SDS011;16399;51.686;8.684;2023-12-29T11:41:31;0.20;;;0.20;;
29422;SDS011;16399;51.686;8.684;2023-12-29T11:44:47;0.45;;;0.20;;
29422;SDS011;16399;51.686;8.684;2023-12-29T11:47:51;0.85;;;0.30;;
29422;SDS011;16399;51.686;8.684;2023-12-29T11:50:55;2.30;;;0.30;;
29422;SDS011;16399;51.686;8.684;2023-12-29T11:53:57;0.60;;;0.20;;
29422;SDS011;16399;51.686;8.684;2023-12-29T11:57:00;0.37;;;0.20;;
29422;SDS011;16399;51.686;8.684;2023-12-29T12:00:02;0.30;;;0.10;;
29422;SDS011;16399;51.686;8.684;2023-12-29T12:03:25;0.10;;;0.10;;
29422;SDS011;16399;51.686;8.684;2023-12-29T12:06:37;0.90;;;0.30;;
29422;SDS011;16399;51.686;8.684;2023-12-29T12:09:40;0.80;;;0.37;;
29422;SDS011;16399;51.686;8.684;2023-12-29T12:12:42;0.72;;;0.20;;
29422;SDS011;16399;51.686;8.684;2023-12-29T12:15:44;0.93;;;0.23;;
29422;SDS011;16399;51.686;8.684;2023-12-29T12:18:47;0.62;;;0.30;;
29422;SDS011;16399;51.686;8.684;2023-12-29T12:21:49;2.12;;;0.65;;
29422;SDS011;16399;51.686;8.684;2023-12-29T12:24:56;9.88;;;3.17;;
29422;SDS011;16399;51.686;8.684;2023-12-29T12:27:59;3.90;;;0.90;;
29422;SDS011;16399;51.686;8.684;2023-12-29T12:31:06;0.30;;;0.30;;
29422;SDS011;16399;51.686;8.684;2023-12-29T12:34:09;2.20;;;0.37;;
29422;SDS011;16399;51.686;8.684;2023-12-29T12:37:11;2.72;;;0.55;;
29422;SDS011;16399;51.686;8.684;2023-12-29T12:40:26;2.20;;;0.40;;
29422;SDS011;16399;51.686;8.684;2023-12-29T12:43:28;1.40;;;0.40;;
29422;SDS011;16399;51.686;8.684;2023-12-29T12:46:33;1.77;;;0.80;;
29422;SDS011;16399;51.686;8.684;2023-12-29T12:49:36;1.85;;;0.45;;
29422;SDS011;16399;51.686;8.684;2023-12-29T12:52:39;0.80;;;0.30;;
29422;SDS011;16399;51.686;8.684;2023-12-29T12:55:41;0.70;;;0.40;;
29422;SDS011;16399;51.686;8.684;2023-12-29T12:58:44;2.08;;;0.62;;
29422;SDS011;16399;51.686;8.684;2023-12-29T13:01:46;2.95;;;0.50;;
29422;SDS011;16399;51.686;8.684;2023-12-29T13:04:49;2.02;;;0.55;;
29422;SDS011;16399;51.686;8.684;2023-12-29T13:07:55;1.05;;;0.50;;
29422;SDS011;16399;51.686;8.684;2023-12-29T13:10:57;5.15;;;0.80;;
29422;SDS011;16399;51.686;8.684;2023-12-29T13:14:06;2.58;;;0.60;;
29422;SDS011;16399;51.686;8.684;2023-12-29T13:17:09;3.05;;;0.80;;
29422;SDS011;16399;51.686;8.684;2023-12-29T13:20:12;2.65;;;0.82;;
29422;SDS011;16399;51.686;8.684;2023-12-29T13:23:14;4.95;;;0.90;;
29422;SDS011;16399;51.686;8.684;2023-12-29T13:26:17;4.75;;;0.95;;
29422;SDS011;16399;51.686;8.684;2023-12-29T13:29:21;1.87;;;0.65;;
29422;SDS011;16399;51.686;8.684;2023-12-29T13:32:29;3.08;;;0.80;;
29422;SDS011;16399;51.686;8.684;2023-12-29T13:35:34;3.42;;;0.90;;
29422;SDS011;16399;51.686;8.684;2023-12-29T13:38:43;2.75;;;0.75;;
29422;SDS011;16399;51.686;8.684;2023-12-29T13:41:47;3.55;;;0.70;;
29422;SDS011;16399;51.686;8.684;2023-12-29T13:44:51;3.42;;;0.98;;
29422;SDS011;16399;51.686;8.684;2023-12-29T13:47:55;2.50;;;0.88;;
29422;SDS011;16399;51.686;8.684;2023-12-29T13:50:59;3.15;;;0.80;;
29422;SDS011;16399;51.686;8.684;2023-12-29T13:54:01;2.77;;;0.95;;
29422;SDS011;16399;51.686;8.684;2023-12-29T13:57:04;1.92;;;0.50;;
29422;SDS011;16399;51.686;8.684;2023-12-29T14:00:16;2.80;;;0.72;;
29422;SDS011;16399;51.686;8.684;2023-12-29T14:03:22;2.58;;;0.62;;
29422;SDS011;16399;51.686;8.684;2023-12-29T14:06:31;2.65;;;0.53;;
29422;SDS011;16399;51.686;8.684;2023-12-29T14:09:35;3.15;;;0.70;;
29422;SDS011;16399;51.686;8.684;2023-12-29T14:12:37;4.12;;;0.90;;
29422;SDS011;16399;51.686;8.684;2023-12-29T14:15:40;2.02;;;0.70;;
29422;SDS011;16399;51.686;8.684;2023-12-29T14:18:54;2.58;;;0.85;;
29422;SDS011;16399;51.686;8.684;2023-12-29T14:21:58;3.17;;;0.80;;
29422;SDS011;16399;51.686;8.684;2023-12-29T14:25:04;1.90;;;0.68;;
29422;SDS011;16399;51.686;8.684;2023-12-29T14:28:17;3.58;;;0.70;;
29422;SDS011;16399;51.686;8.684;2023-12-29T14:31:22;3.17;;;0.95;;
29422;SDS011;16399;51.686;8.684;2023-12-29T14:34:25;1.65;;;0.70;;
29422;SDS011;16399;51.686;8.684;2023-12-29T14:37:27;1.95;;;0.50;;
29422;SDS011;16399;51.686;8.684;2023-12-29T14:40:30;5.90;;;0.65;;
29422;SDS011;16399;51.686;8.684;2023-12-29T14:43:35;2.17;;;0.60;;
29422;SDS011;16399;51.686;8.684;2023-12-29T14:46:38;6.35;;;2.60;;
29422;SDS011;16399;51.686;8.684;2023-12-29T14:49:41;1.57;;;0.80;;
29422;SDS011;16399;51.686;8.684;2023-12-29T14:52:43;2.98;;;0.68;;
29422;SDS011;16399;51.686;8.684;2023-12-29T14:55:46;2.92;;;0.80;;
29422;SDS011;16399;51.686;8.684;2023-12-29T14:58:48;2.37;;;0.90;;
29422;SDS011;16399;51.686;8.684;2023-12-29T15:01:50;3.55;;;0.70;;
29422;SDS011;16399;51.686;8.684;2023-12-29T15:04:53;1.65;;;0.72;;
29422;SDS011;16399;51.686;8.684;2023-12-29T15:07:55;3.60;;;0.80;;
29422;SDS011;16399;51.686;8.684;2023-12-29T15:10:57;2.72;;;0.80;;
29422;SDS011;16399;51.686;8.684;2023-12-29T15:13:59;4.33;;;0.80;;
29422;SDS011;16399;51.686;8.684;2023-12-29T15:17:02;3.77;;;1.10;;
29422;SDS011;16399;51.686;8.684;2023-12-29T15:20:05;4.40;;;0.80;;
29422;SDS011;16399;51.686;8.684;2023-12-29T15:23:08;2.08;;;0.70;;
29422;SDS011;16399;51.686;8.684;2023-12-29T15:26:10;1.52;;;0.47;;
29422;SDS011;16399;51.686;8.684;2023-12-29T15:29:14;2.42;;;0.50;;
29422;SDS011;16399;51.686;8.684;2023-12-29T15:32:16;1.65;;;0.62;;
29422;SDS011;16399;51.686;8.684;2023-12-29T15:35:19;1.22;;;0.50;;
29422;SDS011;16399;51.686;8.684;2023-12-29T15:38:21;1.50;;;0.65;;
29422;SDS011;16399;51.686;8.684;2023-12-29T15:41:24;0.55;;;0.40;;
29422;SDS011;16399;51.686;8.684;2023-12-29T15:44:26;0.95;;;0.50;;
29422;SDS011;16399;51.686;8.684;2023-12-29T15:47:28;1.15;;;0.50;;
29422;SDS011;16399;51.686;8.684;2023-12-29T15:50:31;1.57;;;0.90;;
29422;SDS011;16399;51.686;8.684;2023-12-29T15:53:33;1.80;;;0.70;;
29422;SDS011;16399;51.686;8.684;2023-12-29T15:56:35;0.98;;;0.57;;
29422;SDS011;16399;51.686;8.684;2023-12-29T15:59:38;2.17;;;0.78;;
29422;SDS011;16399;51.686;8.684;2023-12-29T16:02:40;1.30;;;0.60;;
29422;SDS011;16399;51.686;8.684;2023-12-29T16:05:43;1.55;;;0.85;;
29422;SDS011;16399;51.686;8.684;2023-12-29T16:08:45;2.83;;;1.20;;
29422;SDS011;16399;51.686;8.684;2023-12-29T16:11:47;4.12;;;1.60;;
29422;SDS011;16399;51.686;8.684;2023-12-29T16:14:50;3.40;;;1.30;;
29422;SDS011;16399;51.686;8.684;2023-12-29T16:17:53;2.90;;;1.40;;
29422;SDS011;16399;51.686;8.684;2023-12-29T16:20:56;3.00;;;1.20;;
29422;SDS011;16399;51.686;8.684;2023-12-29T16:23:58;2.87;;;0.90;;
29422;SDS011;16399;51.686;8.684;2023-12-29T16:27:02;2.10;;;0.97;;
29422;SDS011;16399;51.686;8.684;2023-12-29T16:30:05;2.15;;;0.90;;
29422;SDS011;16399;51.686;8.684;2023-12-29T16:33:08;2.40;;;0.90;;
29422;SDS011;16399;51.686;8.684;2023-12-29T16:36:11;3.87;;;1.20;;
29422;SDS011;16399;51.686;8.684;2023-12-29T16:39:14;4.43;;;1.47;;
29422;SDS011;16399;51.686;8.684;2023-12-29T16:42:16;3.45;;;1.35;;
29422;SDS011;16399;51.686;8.684;2023-12-29T16:45:19;3.58;;;0.98;;
29422;SDS011;16399;51.686;8.684;2023-12-29T16:48:22;2.00;;;0.88;;
29422;SDS011;16399;51.686;8.684;2023-12-29T16:51:24;3.90;;;1.10;;
29422;SDS011;16399;51.686;8.684;2023-12-29T16:54:26;2.50;;;1.20;;
29422;SDS011;16399;51.686;8.684;2023-12-29T16:57:29;0.72;;;0.40;;
29422;SDS011;16399;51.686;8.684;2023-12-29T17:00:31;2.02;;;0.80;;
29422;SDS011;16399;51.686;8.684;2023-12-29T17:03:33;1.27;;;0.70;;
29422;SDS011;16399;51.686;8.684;2023-12-29T17:06:36;1.65;;;0.80;;
29422;SDS011;16399;51.686;8.684;2023-12-29T17:09:39;1.57;;;0.57;;
29422;SDS011;16399;51.686;8.684;2023-12-29T17:12:42;2.10;;;0.70;;
29422;SDS011;16399;51.686;8.684;2023-12-29T17:15:45;1.45;;;0.57;;
29422;SDS011;16399;51.686;8.684;2023-12-29T17:18:47;1.05;;;0.50;;
29422;SDS011;16399;51.686;8.684;2023-12-29T17:21:49;1.35;;;0.70;;
29422;SDS011;16399;51.686;8.684;2023-12-29T17:24:51;0.65;;;0.40;;
29422;SDS011;16399;51.686;8.684;2023-12-29T17:27:55;1.85;;;0.80;;
29422;SDS011;16399;51.686;8.684;2023-12-29T17:30:57;0.72;;;0.50;;
29422;SDS011;16399;51.686;8.684;2023-12-29T17:34:00;1.20;;;0.42;;
29422;SDS011;16399;51.686;8.684;2023-12-29T17:37:02;1.85;;;0.40;;
29422;SDS011;16399;51.686;8.684;2023-12-29T17:40:04;0.57;;;0.40;;
29422;SDS011;16399;51.686;8.684;2023-12-29T17:43:07;5.08;;;0.90;;
29422;SDS011;16399;51.686;8.684;2023-12-29T17:46:11;2.55;;;0.90;;
29422;SDS011;16399;51.686;8.684;2023-12-29T17:49:13;6.85;;;1.75;;
29422;SDS011;16399;51.686;8.684;2023-12-29T17:52:17;3.17;;;0.93;;
29422;SDS011;16399;51.686;8.684;2023-12-29T17:55:19;3.40;;;0.85;;
29422;SDS011;16399;51.686;8.684;2023-12-29T17:58:22;1.12;;;0.50;;
29422;SDS011;16399;51.686;8.684;2023-12-29T18:01:24;5.95;;;0.70;;
29422;SDS011;16399;51.686;8.684;2023-12-29T18:04:26;1.80;;;0.50;;
29422;SDS011;16399;51.686;8.684;2023-12-29T18:07:28;2.25;;;0.50;;
29422;SDS011;16399;51.686;8.684;2023-12-29T18:10:31;2.00;;;0.62;;
29422;SDS011;16399;51.686;8.684;2023-12-29T18:13:34;1.90;;;0.70;;
29422;SDS011;16399;51.686;8.684;2023-12-29T18:16:36;0.80;;;0.40;;
29422;SDS011;16399;51.686;8.684;2023-12-29T18:19:42;1.92;;;1.10;;
29422;SDS011;16399;51.686;8.684;2023-12-29T18:22:44;2.27;;;0.80;;
29422;SDS011;16399;51.686;8.684;2023-12-29T18:25:47;2.12;;;0.70;;
29422;SDS011;16399;51.686;8.684;2023-12-29T18:28:49;1.75;;;0.42;;
29422;SDS011;16399;51.686;8.684;2023-12-29T18:31:52;0.72;;;0.50;;
29422;SDS011;16399;51.686;8.684;2023-12-29T18:34:54;2.45;;;0.85;;
29422;SDS011;16399;51.686;8.684;2023-12-29T18:37:56;1.07;;;0.20;;
29422;SDS011;16399;51.686;8.684;2023-12-29T18:41:02;0.40;;;0.40;;